Majsk, Russia
Current Conditions -  °F | °C
As of 7:30 AM on Monday 22 Dec 2014 (Local Time) from USNN Reporting Station
Light Snow Light Snow  
Wind Chill: 10°   Ceiling: 1200
Heat Index: 23°   Visibility: 5mi
Dew Point: 19°   Wind: 16mph
Humidity: 86%   Direction: 190°S
Pressure: 29.59"   Gusts: NA
Location:  57.78°N, 77.28°E
Report Text: USNN 220030Z 19007MPS 8000 -SN DRSN OVC012 M05/M07 Q1002 NOSIGRMK QFE747 21610338
Loading
Personal Weather Stations






























Interactive Weather Map New forecast layout! Learn more

10-Day Weather Forecast

Advertisements
Track Severe Weather on mobile